Time;durP1;ratioP1;P1;durP2;ratioP2;P2;SDS_P1;SDS_P2;PMS_P1;PMS_P2;Temp;Humidity;BMP_temperature;BMP_pressure;BME280_temperature;BME280_humidity;BME280_pressure;Samples;Min_cycle;Max_cycle;Signal;HPM_P1;HPM_P2
2022/06/21 00:00:37;;;;;;;17.00;12.90;;;23.00;99.90;;;;;;5077706;28;20021;-69
2022/06/21 00:03:07;;;;;;;16.33;13.10;;;23.00;99.90;;;;;;5074684;28;20332;-71
2022/06/21 00:05:41;;;;;;;17.00;12.38;;;23.00;99.90;;;;;;5075539;28;20036;-69
2022/06/21 00:08:19;;;;;;;18.92;12.00;;;23.00;99.90;;;;;;5078232;28;20016;-71
2022/06/21 00:10:45;;;;;;;16.75;11.68;;;23.00;99.90;;;;;;5074408;28;20028;-68
2022/06/21 00:13:14;;;;;;;15.68;11.80;;;23.00;99.90;;;;;;5074408;28;20021;-67
2022/06/21 00:15:42;;;;;;;15.80;11.57;;;23.00;99.90;;;;;;5074493;28;20077;-67
2022/06/21 00:18:13;;;;;;;16.60;12.20;;;23.00;99.90;;;;;;5074024;28;20028;-70
2022/06/21 00:20:40;;;;;;;20.13;11.82;;;23.00;99.90;;;;;;5055936;28;20020;-70
2022/06/21 00:23:12;;;;;;;16.95;12.15;;;23.00;99.90;;;;;;5074109;28;20482;-69
2022/06/21 00:25:38;;;;;;;17.42;11.48;;;23.00;99.90;;;;;;5073819;28;20390;-70
2022/06/21 00:28:04;;;;;;;19.52;11.40;;;23.00;99.90;;;;;;5074157;28;20029;-70
2022/06/21 00:30:30;;;;;;;15.93;11.13;;;23.00;99.90;;;;;;5077382;28;20075;-70
2022/06/21 00:32:56;;;;;;;15.10;11.00;;;23.00;99.90;;;;;;5074343;28;20032;-69
2022/06/21 00:35:24;;;;;;;15.95;11.10;;;23.00;99.90;;;;;;5073917;28;20024;-69
2022/06/21 00:37:51;;;;;;;15.30;10.80;;;23.00;99.90;;;;;;5076784;28;20016;-69
2022/06/21 00:40:19;;;;;;;17.35;11.43;;;23.00;99.90;;;;;;5073838;28;20016;-69
2022/06/21 00:42:48;;;;;;;15.77;10.45;;;22.90;99.90;;;;;;5073761;28;20390;-70
2022/06/21 00:45:26;;;;;;;17.58;11.38;;;22.90;99.90;;;;;;5073553;28;20028;-70
2022/06/21 00:47:55;;;;;;;20.63;10.15;;;23.00;99.90;;;;;;5073838;28;20027;-70
2022/06/21 00:50:37;;;;;;;14.73;10.18;;;22.90;99.90;;;;;;5073399;28;20044;-70
2022/06/21 00:53:19;;;;;;;13.02;9.63;;;22.90;99.90;;;;;;5073361;28;20043;-70
2022/06/21 00:55:50;;;;;;;18.38;10.05;;;22.90;99.90;;;;;;5073729;28;20116;-71
2022/06/21 00:58:18;;;;;;;12.57;9.18;;;22.90;99.90;;;;;;5073619;28;20120;-71
2022/06/21 01:01:12;;;;;;;20.23;10.50;;;22.80;99.90;;;;;;5073565;28;20019;-71
2022/06/21 01:03:44;;;;;;;16.42;9.85;;;22.90;99.90;;;;;;5073224;28;20027;-71
2022/06/21 01:06:17;;;;;;;13.43;9.30;;;22.90;99.90;;;;;;5073453;28;20112;-71
2022/06/21 01:08:48;;;;;;;15.27;9.90;;;22.90;99.90;;;;;;5076714;28;20028;-69
2022/06/21 01:11:19;;;;;;;17.25;10.98;;;22.90;99.90;;;;;;5073328;28;20075;-71
2022/06/21 01:13:48;;;;;;;17.52;10.30;;;22.80;99.90;;;;;;5074309;28;20020;-70
2022/06/21 01:16:15;;;;;;;15.07;9.77;;;22.80;99.90;;;;;;5073214;28;20056;-66
2022/06/21 01:18:42;;;;;;;17.27;9.82;;;22.80;99.90;;;;;;5073321;28;20036;-69
2022/06/21 01:21:11;;;;;;;14.93;9.55;;;22.80;99.90;;;;;;5073137;28;20414;-68
2022/06/21 01:24:10;;;;;;;14.75;9.13;;;22.80;99.90;;;;;;5072898;28;20029;-70
2022/06/21 01:27:00;;;;;;;14.13;8.93;;;22.70;99.90;;;;;;5073021;28;20432;-70
2022/06/21 01:29:30;;;;;;;13.85;9.82;;;22.70;99.90;;;;;;5075281;28;20062;-71
2022/06/21 01:32:00;;;;;;;14.52;9.88;;;22.70;99.90;;;;;;5072804;28;20100;-69
2022/06/21 01:34:27;;;;;;;13.95;9.20;;;22.60;99.90;;;;;;5072782;28;20106;-70
2022/06/21 01:37:07;;;;;;;14.00;9.90;;;22.70;99.90;;;;;;5072773;28;20351;-70
2022/06/21 01:39:56;;;;;;;18.92;10.35;;;22.70;99.90;;;;;;5071635;28;20500;-70
2022/06/21 01:42:34;;;;;;;15.57;10.10;;;22.60;99.90;;;;;;5066734;28;20047;-69
2022/06/21 01:45:04;;;;;;;17.30;10.50;;;22.70;99.90;;;;;;5071600;28;20024;-70
2022/06/21 01:47:40;;;;;;;13.98;9.85;;;22.70;99.90;;;;;;5071782;28;20027;-71
2022/06/21 01:50:08;;;;;;;20.10;10.25;;;22.60;99.90;;;;;;5068405;28;20040;-69
2022/06/21 01:52:38;;;;;;;12.13;9.38;;;22.60;99.90;;;;;;5071682;28;20557;-67
2022/06/21 01:55:19;;;;;;;13.82;9.25;;;22.60;99.90;;;;;;5071803;28;20021;-69
2022/06/21 01:57:47;;;;;;;16.63;10.00;;;22.60;99.90;;;;;;5072057;28;20032;-69
2022/06/21 02:00:14;;;;;;;14.93;9.63;;;22.50;99.90;;;;;;5068103;28;20458;-71
2022/06/21 02:02:47;;;;;;;17.92;10.18;;;22.50;99.90;;;;;;5067606;28;20035;-69
2022/06/21 02:05:22;;;;;;;18.30;9.65;;;22.50;99.90;;;;;;5052652;28;20028;-69
2022/06/21 02:08:04;;;;;;;15.73;9.60;;;22.40;99.90;;;;;;5060860;28;20131;-68
2022/06/21 02:10:45;;;;;;;20.70;10.68;;;22.40;99.90;;;;;;5072716;28;20028;-71
2022/06/21 02:13:20;;;;;;;18.17;10.52;;;22.40;99.90;;;;;;5063419;28;20486;-69
2022/06/21 02:15:59;;;;;;;15.45;10.20;;;22.40;99.90;;;;;;5062332;28;20044;-69
2022/06/21 02:18:29;;;;;;;21.65;11.00;;;22.40;99.90;;;;;;5075949;28;20492;-70
2022/06/21 02:20:58;;;;;;;16.23;9.90;;;22.40;99.90;;;;;;5053153;28;20021;-70
2022/06/21 02:23:24;;;;;;;17.15;10.18;;;22.40;99.90;;;;;;5068886;28;20479;-70
2022/06/21 02:25:55;;;;;;;18.40;9.60;;;22.40;99.90;;;;;;5054688;28;20485;-68
2022/06/21 02:28:22;;;;;;;17.33;10.77;;;22.30;99.90;;;;;;5054382;28;20127;-69
2022/06/21 02:30:51;;;;;;;18.30;10.38;;;22.30;99.90;;;;;;5072436;28;20032;-70
2022/06/21 02:33:29;;;;;;;22.33;10.27;;;22.30;99.90;;;;;;5072337;28;20102;-70
2022/06/21 02:35:59;;;;;;;17.60;9.23;;;22.30;99.90;;;;;;5072423;28;20033;-70
2022/06/21 02:38:43;;;;;;;15.38;10.65;;;22.30;99.90;;;;;;5072381;28;20032;-69
2022/06/21 02:41:18;;;;;;;18.77;10.18;;;22.30;99.90;;;;;;5072204;28;20111;-71
2022/06/21 02:43:51;;;;;;;15.82;9.63;;;22.30;99.90;;;;;;5072218;28;20035;-71
2022/06/21 02:46:22;;;;;;;14.82;9.27;;;22.30;99.90;;;;;;5072214;28;20035;-71
2022/06/21 02:49:01;;;;;;;15.10;9.70;;;22.30;99.90;;;;;;5071985;28;20470;-70
2022/06/21 02:51:32;;;;;;;15.10;9.57;;;22.30;99.90;;;;;;5072099;28;20499;-71
2022/06/21 02:54:07;;;;;;;17.02;9.38;;;22.30;99.90;;;;;;5071592;28;20086;-71
2022/06/21 02:57:09;;;;;;;15.93;10.00;;;22.30;99.90;;;;;;5062254;28;20040;-69
2022/06/21 02:59:38;;;;;;;11.82;7.82;;;22.40;99.90;;;;;;5070349;28;20371;-68
2022/06/21 03:02:14;;;;;;;14.52;8.63;;;22.40;99.90;;;;;;5060084;28;20033;-68
2022/06/21 03:04:49;;;;;;;14.02;8.32;;;22.40;99.90;;;;;;5071354;28;20028;-71
2022/06/21 03:07:24;;;;;;;15.27;9.07;;;22.50;99.90;;;;;;5079970;28;20033;-69
2022/06/21 03:09:52;;;;;;;15.75;9.73;;;22.50;99.90;;;;;;5053586;28;20029;-70
2022/06/21 03:12:28;;;;;;;14.10;8.93;;;22.50;99.90;;;;;;5055960;28;20032;-71
2022/06/21 03:14:58;;;;;;;17.42;10.00;;;22.40;99.90;;;;;;5071823;28;20565;-70
2022/06/21 03:17:37;;;;;;;14.57;9.13;;;22.40;99.90;;;;;;5071723;28;20043;-70
2022/06/21 03:20:08;;;;;;;15.57;9.98;;;22.30;99.90;;;;;;5071678;28;20017;-69
2022/06/21 03:22:34;;;;;;;15.27;9.45;;;22.40;99.90;;;;;;5071149;28;20036;-70
2022/06/21 03:25:05;;;;;;;15.48;9.00;;;22.30;99.90;;;;;;5071320;28;20364;-70
2022/06/21 03:27:53;;;;;;;16.98;9.32;;;22.40;99.90;;;;;;5071596;28;20025;-69
2022/06/21 03:30:21;;;;;;;19.55;9.60;;;22.50;99.90;;;;;;5071347;28;20092;-70
2022/06/21 03:32:49;;;;;;;15.45;9.30;;;22.60;99.90;;;;;;5071381;28;20024;-70
2022/06/21 03:35:16;;;;;;;18.63;9.52;;;22.70;99.90;;;;;;5063411;28;20025;-71
2022/06/21 03:37:43;;;;;;;19.23;9.90;;;22.70;99.90;;;;;;5065495;28;20086;-68
2022/06/21 03:43:25;;;;;;;15.25;10.02;;;22.80;99.90;;;;;;5061246;28;20033;-71
2022/06/21 03:45:52;;;;;;;15.43;9.50;;;23.50;99.90;;;;;;5047753;28;20040;-70
2022/06/21 03:48:42;;;;;;;13.30;8.73;;;24.00;99.90;;;;;;5051466;28;20021;-70
2022/06/21 03:51:12;;;;;;;13.85;9.13;;;23.90;99.90;;;;;;5060944;28;20028;-70
2022/06/21 03:53:48;;;;;;;16.25;9.52;;;23.80;99.90;;;;;;5071193;28;20040;-69
2022/06/21 03:56:28;;;;;;;16.67;8.93;;;24.40;99.90;;;;;;5067259;28;20068;-70
2022/06/21 03:58:59;;;;;;;17.20;8.43;;;25.00;99.90;;;;;;5071234;28;20028;-70
2022/06/21 04:01:49;;;;;;;17.20;8.63;;;25.60;99.90;;;;;;5071030;28;20107;-69
2022/06/21 04:04:23;;;;;;;13.50;8.15;;;26.10;99.70;;;;;;5067263;28;20522;-70
2022/06/21 04:07:00;;;;;;;13.07;8.10;;;26.40;98.40;;;;;;5064039;28;20046;-70
2022/06/21 04:09:33;;;;;;;13.88;8.18;;;27.10;96.40;;;;;;5068530;28;20021;-70
2022/06/21 04:12:10;;;;;;;11.52;7.50;;;26.90;96.10;;;;;;5060789;28;20047;-69
2022/06/21 04:15:08;;;;;;;15.20;9.25;;;27.50;95.20;;;;;;5077256;28;20024;-68
2022/06/21 04:17:47;;;;;;;11.38;8.27;;;27.60;93.70;;;;;;5074029;28;20047;-69
2022/06/21 04:20:22;;;;;;;12.25;7.70;;;28.20;92.30;;;;;;5074330;28;20466;-71
2022/06/21 04:22:51;;;;;;;14.52;7.05;;;28.40;91.30;;;;;;5074246;28;20060;-70
2022/06/21 04:25:30;;;;;;;13.43;7.35;;;28.80;91.40;;;;;;5072482;28;20028;-71
2022/06/21 04:28:02;;;;;;;12.20;7.40;;;29.00;90.70;;;;;;5062013;28;20036;-71
2022/06/21 04:31:00;;;;;;;15.88;7.80;;;29.30;87.40;;;;;;5059905;28;20101;-71
2022/06/21 04:33:34;;;;;;;11.50;7.20;;;;;;;;;;5073857;28;20554;-71
2022/06/21 04:36:07;;;;;;;11.73;7.18;;;29.80;85.30;;;;;;5070354;28;20364;-71
2022/06/21 04:39:08;;;;;;;10.57;6.63;;;29.80;83.30;;;;;;5073905;28;20028;-71
2022/06/21 04:41:45;;;;;;;18.40;7.32;;;29.50;83.90;;;;;;4991843;28;20390;-71
2022/06/21 04:44:18;;;;;;;18.38;7.75;;;29.60;82.80;;;;;;4992914;28;20577;-72
2022/06/21 04:46:54;;;;;;;10.52;7.72;;;30.30;82.20;;;;;;4989281;28;20049;-71
2022/06/21 04:49:27;;;;;;;12.30;7.18;;;30.50;81.70;;;;;;4983048;28;20031;-70
2022/06/21 04:52:16;;;;;;;11.55;6.88;;;30.70;80.50;;;;;;4992239;28;20050;-72
2022/06/21 04:54:43;;;;;;;16.25;7.30;;;30.20;81.40;;;;;;4992267;28;20026;-71
2022/06/21 04:57:18;;;;;;;16.17;7.20;;;30.70;82.00;;;;;;4992252;28;20141;-72
2022/06/21 04:59:45;;;;;;;14.60;7.03;;;29.10;84.10;;;;;;4991602;28;20037;-72
2022/06/21 05:02:22;;;;;;;11.18;6.60;;;28.80;87.80;;;;;;4992394;28;20045;-71
2022/06/21 05:04:54;;;;;;;11.63;6.25;;;28.30;90.70;;;;;;4992092;28;20549;-72
2022/06/21 05:07:29;;;;;;;11.07;7.38;;;28.30;91.50;;;;;;4991776;28;20507;-71
2022/06/21 05:09:56;;;;;;;12.45;6.60;;;27.90;92.80;;;;;;4992155;28;20077;-71
2022/06/21 05:12:26;;;;;;;9.73;6.00;;;27.80;93.90;;;;;;4991803;28;20039;-72
2022/06/21 05:15:07;;;;;;;10.80;6.55;;;27.60;95.40;;;;;;4992856;28;20089;-71
2022/06/21 05:17:37;;;;;;;15.90;6.90;;;27.60;95.30;;;;;;5022063;28;20055;-71
2022/06/21 05:20:11;;;;;;;11.25;5.50;;;27.70;95.80;;;;;;5073467;28;20059;-71
2022/06/21 05:22:42;;;;;;;9.43;5.95;;;27.50;95.60;;;;;;5069120;28;20029;-71
2022/06/21 05:25:25;;;;;;;9.70;5.23;;;27.70;95.30;;;;;;5073129;28;20027;-70
2022/06/21 05:27:58;;;;;;;12.05;6.63;;;27.50;96.50;;;;;;5072585;28;20032;-72
2022/06/21 05:30:38;;;;;;;18.90;7.10;;;27.60;96.30;;;;;;5058172;28;20521;-71
2022/06/21 05:33:27;;;;;;;11.93;5.97;;;27.50;96.50;;;;;;5069746;28;20074;-71
2022/06/21 05:35:54;;;;;;;13.15;6.28;;;27.60;96.60;;;;;;5054505;28;20093;-72
2022/06/21 05:38:31;;;;;;;9.80;6.07;;;27.70;96.30;;;;;;5072205;28;20108;-71
2022/06/21 05:41:29;;;;;;;13.73;6.68;;;27.60;96.00;;;;;;5069722;28;20024;-70
2022/06/21 05:44:22;;;;;;;10.00;6.30;;;27.70;96.50;;;;;;5067118;28;20031;-70
2022/06/21 05:46:53;;;;;;;18.42;6.07;;;27.60;96.20;;;;;;4991170;28;20090;-71
2022/06/21 05:49:26;;;;;;;9.02;5.65;;;27.60;95.80;;;;;;4991506;28;20049;-71
2022/06/21 05:51:54;;;;;;;11.68;5.70;;;27.80;96.00;;;;;;4991117;28;20046;-71
2022/06/21 05:54:25;;;;;;;11.77;6.07;;;27.80;96.00;;;;;;4991182;28;20514;-71
2022/06/21 05:56:52;;;;;;;16.13;6.78;;;27.80;96.00;;;;;;4990899;28;20038;-71
2022/06/21 05:59:20;;;;;;;11.75;6.07;;;28.10;96.80;;;;;;4990613;28;20022;-72
2022/06/21 06:02:16;;;;;;;10.80;6.05;;;28.30;94.80;;;;;;4991293;28;20038;-71
2022/06/21 06:04:50;;;;;;;10.45;6.35;;;28.40;93.60;;;;;;4990487;28;20505;-71
2022/06/21 06:07:30;;;;;;;9.38;6.25;;;28.40;94.40;;;;;;4990226;28;20076;-70
2022/06/21 06:10:00;;;;;;;14.18;6.90;;;28.30;95.10;;;;;;4990582;28;20543;-71
2022/06/21 06:12:41;;;;;;;11.43;6.00;;;28.10;95.70;;;;;;4989987;28;20385;-71
2022/06/21 06:15:20;;;;;;;12.93;6.93;;;28.20;93.90;;;;;;4990825;28;20033;-71
2022/06/21 06:18:06;;;;;;;18.75;6.65;;;28.40;93.80;;;;;;4990940;28;20050;-71
2022/06/21 06:20:45;;;;;;;9.82;5.63;;;28.60;94.40;;;;;;4989739;28;20066;-70
2022/06/21 06:23:26;;;;;;;13.50;5.65;;;28.80;93.10;;;;;;5009233;28;20398;-70
2022/06/21 06:26:01;;;;;;;14.60;6.13;;;28.40;93.50;;;;;;5069429;28;20025;-71
2022/06/21 06:28:50;;;;;;;9.75;4.75;;;28.50;93.30;;;;;;5071152;28;20452;-70
2022/06/21 06:31:19;;;;;;;10.90;6.40;;;28.30;91.80;;;;;;5069940;28;20447;-70
2022/06/21 06:34:01;;;;;;;12.60;6.03;;;28.40;92.80;;;;;;5072435;28;20086;-69
2022/06/21 06:36:50;;;;;;;10.50;5.53;;;28.10;93.20;;;;;;5078827;28;20062;-69
2022/06/21 06:39:33;;;;;;;15.05;4.72;;;28.30;93.60;;;;;;5071197;28;20122;-70
2022/06/21 06:42:04;;;;;;;9.27;5.57;;;28.50;92.20;;;;;;5069783;28;20032;-70
2022/06/21 06:44:41;;;;;;;9.90;5.38;;;28.60;92.00;;;;;;5063885;28;20029;-70
2022/06/21 06:47:25;;;;;;;11.68;5.70;;;28.60;92.50;;;;;;5071449;28;20447;-71
2022/06/21 06:50:02;;;;;;;11.48;6.35;;;28.80;91.60;;;;;;5071733;28;20041;-71
2022/06/21 06:52:37;;;;;;;10.57;4.97;;;28.70;91.90;;;;;;5057940;28;20036;-71
2022/06/21 06:55:06;;;;;;;9.35;5.47;;;28.60;92.30;;;;;;5064714;28;20059;-70
2022/06/21 06:57:44;;;;;;;9.48;5.15;;;28.70;92.10;;;;;;5069969;28;20036;-70
2022/06/21 07:00:16;;;;;;;10.30;5.88;;;28.80;91.30;;;;;;5072973;28;20032;-71
2022/06/21 07:02:59;;;;;;;10.32;6.20;;;28.50;91.50;;;;;;5060874;28;20075;-71
2022/06/21 07:05:27;;;;;;;11.40;6.40;;;28.80;92.10;;;;;;5070480;28;20522;-69
2022/06/21 07:07:58;;;;;;;17.58;4.88;;;28.60;93.10;;;;;;5071100;28;20021;-70
2022/06/21 07:10:26;;;;;;;7.97;5.20;;;;;;;;;;5070011;28;20033;-70
2022/06/21 07:12:53;;;;;;;10.32;5.50;;;28.90;91.00;;;;;;5070408;28;20023;-70
2022/06/21 07:15:30;;;;;;;10.50;5.03;;;29.10;90.50;;;;;;5073957;28;20470;-69
2022/06/21 07:17:57;;;;;;;10.13;5.07;;;29.30;90.70;;;;;;5066978;28;20043;-69
2022/06/21 07:20:27;;;;;;;11.75;4.72;;;29.50;88.60;;;;;;5057994;28;20104;-65
2022/06/21 07:22:55;;;;;;;9.93;4.82;;;29.30;86.60;;;;;;5052191;28;20060;-68
2022/06/21 07:25:34;;;;;;;10.23;4.72;;;29.30;85.40;;;;;;5070493;28;20469;-70
2022/06/21 07:28:23;;;;;;;9.88;5.10;;;29.30;83.50;;;;;;5069098;28;20463;-69
2022/06/21 07:30:52;;;;;;;9.85;4.47;;;29.10;85.10;;;;;;5063970;28;20483;-71
2022/06/21 07:33:37;;;;;;;7.63;5.00;;;29.10;84.70;;;;;;5068901;28;20032;-70
2022/06/21 07:36:19;;;;;;;8.38;4.82;;;29.30;86.20;;;;;;5070117;28;20033;-68
2022/06/21 07:38:57;;;;;;;8.40;5.55;;;29.50;86.50;;;;;;5053146;28;20077;-63
2022/06/21 07:41:58;;;;;;;13.32;5.13;;;29.30;85.10;;;;;;5072233;28;20386;-70
2022/06/21 07:44:39;;;;;;;15.50;5.30;;;29.40;84.60;;;;;;4991237;28;20050;-70
2022/06/21 07:47:21;;;;;;;12.15;5.32;;;29.50;85.80;;;;;;4992777;28;20069;-69
2022/06/21 07:49:59;;;;;;;11.73;5.20;;;29.70;83.60;;;;;;4995984;28;20049;-70
2022/06/21 07:52:33;;;;;;;12.02;4.93;;;29.50;83.90;;;;;;4994841;28;20420;-68
2022/06/21 07:55:06;;;;;;;13.70;5.10;;;29.30;84.10;;;;;;4994632;28;20039;-70
2022/06/21 07:57:39;;;;;;;11.77;4.97;;;29.50;86.60;;;;;;5003109;28;20046;-70
2022/06/21 08:00:13;;;;;;;10.45;5.88;;;29.60;85.70;;;;;;5006297;28;20039;-70
2022/06/21 08:09:13;;;;;;;9.50;5.15;;;29.80;84.30;;;;;;4992487;28;20060;-69
2022/06/21 08:11:44;;;;;;;9.10;4.82;;;29.90;85.70;;;;;;4992854;28;20032;-70
2022/06/21 08:14:12;;;;;;;9.38;5.18;;;30.20;84.40;;;;;;5002475;28;20120;-70
2022/06/21 08:16:49;;;;;;;9.00;5.35;;;30.00;83.10;;;;;;5000668;28;20049;-71
2022/06/21 08:19:25;;;;;;;9.60;4.63;;;30.00;81.90;;;;;;4992906;28;20030;-64
2022/06/21 08:22:01;;;;;;;12.82;5.15;;;30.10;83.30;;;;;;5071416;28;20048;-70
2022/06/21 08:24:45;;;;;;;11.80;6.00;;;30.10;83.40;;;;;;5074115;28;20477;-69
2022/06/21 08:27:23;;;;;;;14.15;5.60;;;30.20;83.80;;;;;;5067933;28;20020;-67
2022/06/21 08:30:00;;;;;;;10.20;5.32;;;30.20;86.10;;;;;;5062852;28;20017;-70
2022/06/21 08:32:31;;;;;;;12.07;5.47;;;30.60;84.30;;;;;;5063299;28;20029;-68
2022/06/21 08:35:08;;;;;;;8.88;4.88;;;31.00;83.40;;;;;;5074179;28;20115;-70
2022/06/21 08:37:37;;;;;;;10.15;5.40;;;30.80;81.80;;;;;;5073493;28;20681;-70
2022/06/21 08:40:27;;;;;;;8.10;4.60;;;30.70;81.00;;;;;;5078664;28;20052;-66
2022/06/21 08:43:11;;;;;;;11.23;4.93;;;30.70;82.10;;;;;;5072787;28;20020;-69
2022/06/21 08:46:00;;;;;;;14.05;4.75;;;30.70;79.50;;;;;;5057378;28;20500;-69
2022/06/21 08:48:38;;;;;;;13.35;4.90;;;31.20;78.10;;;;;;5071328;28;20465;-69
2022/06/21 08:51:25;;;;;;;7.55;4.60;;;30.80;78.00;;;;;;5071576;28;20075;-70
2022/06/21 08:54:06;;;;;;;10.80;4.78;;;31.10;77.50;;;;;;5071446;28;20036;-69
2022/06/21 08:56:34;;;;;;;9.38;4.35;;;31.30;76.50;;;;;;5071323;28;20025;-69
2022/06/21 08:59:25;;;;;;;8.68;5.05;;;31.10;74.50;;;;;;5073549;28;20374;-69
2022/06/21 09:02:12;;;;;;;9.90;4.30;;;31.10;76.30;;;;;;5072070;28;20047;-69
2022/06/21 09:04:47;;;;;;;6.40;4.55;;;31.00;75.80;;;;;;5071800;28;20382;-68
2022/06/21 09:07:28;;;;;;;8.10;4.75;;;30.70;75.40;;;;;;5075245;28;20025;-68
2022/06/21 09:10:28;;;;;;;10.05;5.25;;;30.70;76.20;;;;;;5076438;28;20032;-68
2022/06/21 09:13:06;;;;;;;10.80;4.47;;;30.90;79.10;;;;;;5069160;28;20036;-66
2022/06/21 09:15:47;;;;;;;9.63;4.80;;;31.20;75.00;;;;;;5071046;28;20489;-69
2022/06/21 09:18:29;;;;;;;11.85;4.80;;;31.50;77.60;;;;;;5070579;28;20064;-68
2022/06/21 09:21:04;;;;;;;11.20;4.90;;;31.30;78.40;;;;;;5070777;28;20060;-69
2022/06/21 09:23:58;;;;;;;11.80;4.70;;;31.50;77.20;;;;;;5071924;28;20047;-69
2022/06/21 09:26:33;;;;;;;8.68;4.68;;;31.30;74.60;;;;;;5056988;28;20059;-69
2022/06/21 09:29:18;;;;;;;8.27;4.25;;;30.90;73.30;;;;;;5072230;28;20138;-67
2022/06/21 09:31:50;;;;;;;13.73;5.47;;;31.10;74.10;;;;;;5072457;28;20031;-70
2022/06/21 09:34:19;;;;;;;7.85;4.38;;;31.00;74.80;;;;;;5071432;28;20402;-68
2022/06/21 09:37:04;;;;;;;9.70;4.95;;;31.20;75.50;;;;;;5071805;28;20029;-69
2022/06/21 09:39:47;;;;;;;10.02;4.35;;;31.40;76.80;;;;;;5072011;28;20378;-69
2022/06/21 09:42:31;;;;;;;8.70;4.80;;;31.30;76.00;;;;;;5072629;28;20031;-68
2022/06/21 09:45:08;;;;;;;14.63;4.80;;;31.30;74.00;;;;;;5074091;28;20130;-67
2022/06/21 09:48:01;;;;;;;8.20;4.72;;;31.40;78.20;;;;;;5058440;28;20043;-68
2022/06/21 09:50:57;;;;;;;11.82;5.10;;;31.20;74.10;;;;;;5071054;28;20040;-70
2022/06/21 09:53:47;;;;;;;16.58;4.93;;;31.30;75.70;;;;;;5077092;28;20036;-69
2022/06/21 09:56:38;;;;;;;5.38;4.68;;;31.60;75.30;;;;;;5069818;28;20059;-67
2022/06/21 09:59:15;;;;;;;8.00;4.95;;;31.40;74.50;;;;;;5072060;28;20050;-69
2022/06/21 10:01:40;;;;;;;8.45;3.95;;;31.40;75.40;;;;;;5069308;28;20044;-66
2022/06/21 10:04:18;;;;;;;9.65;3.72;;;31.30;72.70;;;;;;5070973;28;20043;-67
2022/06/21 10:07:05;;;;;;;11.35;5.13;;;31.20;71.40;;;;;;5071343;28;20024;-68
2022/06/21 10:10:16;;;;;;;9.30;5.03;;;31.20;73.50;;;;;;5081158;28;20522;-68
2022/06/21 10:12:47;;;;;;;9.20;4.63;;;31.30;76.40;;;;;;5066452;28;20111;-69
2022/06/21 10:15:34;;;;;;;8.75;5.00;;;31.70;75.10;;;;;;5070625;28;20355;-69
2022/06/21 10:18:12;;;;;;;12.95;4.80;;;31.80;72.90;;;;;;5067222;28;20032;-70
2022/06/21 10:20:44;;;;;;;10.32;4.78;;;31.50;73.10;;;;;;5071703;28;20028;-69
2022/06/21 10:23:17;;;;;;;7.43;4.65;;;31.50;74.50;;;;;;5070328;28;20032;-70
2022/06/21 10:26:08;;;;;;;9.18;4.13;;;31.60;73.40;;;;;;5070610;28;20036;-67
2022/06/21 10:28:45;;;;;;;11.85;5.22;;;31.40;72.50;;;;;;5071922;28;20029;-69
2022/06/21 10:31:27;;;;;;;9.25;4.70;;;31.70;73.20;;;;;;5081094;28;20020;-68
2022/06/21 10:34:30;;;;;;;7.45;3.88;;;31.80;72.30;;;;;;5057687;28;20103;-68
2022/06/21 10:38:01;;;;;;;6.47;3.72;;;32.00;71.20;;;;;;5069387;28;20032;-68
2022/06/21 10:40:36;;;;;;;9.18;4.43;;;31.80;69.70;;;;;;5028162;28;20067;-68
2022/06/21 10:43:23;;;;;;;8.13;3.60;;;31.50;70.40;;;;;;5009899;28;20017;-68
2022/06/21 10:45:52;;;;;;;10.10;5.25;;;31.70;72.70;;;;;;5010013;28;20042;-68
2022/06/21 10:48:30;;;;;;;8.13;4.40;;;31.90;72.10;;;;;;5009792;28;20034;-69
2022/06/21 10:51:13;;;;;;;8.13;4.22;;;31.50;70.40;;;;;;5025874;28;20124;-68
2022/06/21 10:53:54;;;;;;;9.00;4.28;;;31.40;71.40;;;;;;4973991;28;20050;-67
2022/06/21 11:02:56;;;;;;;8.10;4.40;;;31.90;71.70;;;;;;5002619;28;20491;-69
2022/06/21 11:05:41;;;;;;;6.53;4.10;;;32.20;71.50;;;;;;5006675;28;20092;-70
2022/06/21 11:08:28;;;;;;;13.07;5.40;;;32.10;70.40;;;;;;5008236;28;20037;-69
2022/06/21 11:11:13;;;;;;;7.97;4.63;;;31.60;70.90;;;;;;5042151;28;20036;-69
2022/06/21 11:14:00;;;;;;;15.93;4.28;;;31.60;73.30;;;;;;5068049;28;20074;-68
2022/06/21 11:16:37;;;;;;;6.60;4.38;;;31.80;73.30;;;;;;5075489;28;20036;-69
2022/06/21 11:19:14;;;;;;;9.55;4.60;;;31.80;74.10;;;;;;5073757;28;20016;-70
2022/06/21 11:22:09;;;;;;;6.10;4.50;;;31.70;70.70;;;;;;5074172;28;20098;-70
2022/06/21 11:24:40;;;;;;;9.05;5.13;;;31.70;73.10;;;;;;5074981;28;20033;-70
2022/06/21 11:27:06;;;;;;;;;;;31.70;72.10;;;;;;5071366;28;20494;-71
2022/06/21 11:29:54;;;;;;;10.40;5.07;;;31.60;71.50;;;;;;5074922;28;19935;-70
2022/06/21 11:32:50;;;;;;;22.20;5.55;;;31.80;72.40;;;;;;5073001;28;20382;-70
2022/06/21 11:35:41;;;;;;;6.85;4.55;;;32.00;74.00;;;;;;5019870;28;20129;-68
2022/06/21 11:38:33;;;;;;;8.67;4.10;;;31.90;71.80;;;;;;4993365;28;20042;-69
2022/06/21 11:44:29;;;;;;;8.80;4.82;;;31.70;72.80;;;;;;5008757;28;20044;-70
2022/06/21 11:47:03;;;;;;;8.85;4.40;;;31.50;71.50;;;;;;5005857;28;20129;-69
2022/06/21 11:49:48;;;;;;;9.52;4.85;;;31.80;72.90;;;;;;5011604;28;20021;-70
2022/06/21 11:52:44;;;;;;;7.78;4.82;;;31.80;71.20;;;;;;5009092;28;20283;-71
2022/06/21 11:55:47;;;;;;;6.30;4.70;;;31.60;71.40;;;;;;4993555;28;20034;-70
2022/06/21 11:58:15;;;;;;;7.40;4.57;;;31.50;71.30;;;;;;5011706;28;20064;-69
2022/06/21 12:01:01;;;;;;;7.25;4.25;;;31.80;72.90;;;;;;4994841;28;20026;-70
2022/06/21 12:04:03;;;;;;;6.45;4.78;;;31.60;72.50;;;;;;4997710;28;20607;-70
2022/06/21 12:06:42;;;;;;;9.65;4.47;;;31.60;72.90;;;;;;4954750;29;20646;-69
2022/06/21 12:09:20;;;;;;;6.47;4.82;;;31.70;72.00;;;;;;4967520;28;20481;-69
2022/06/21 12:12:00;;;;;;;8.98;4.20;;;31.60;73.60;;;;;;4976308;28;20449;-69
2022/06/21 12:15:14;;;;;;;11.45;4.65;;;31.80;73.00;;;;;;5011978;28;20030;-67
2022/06/21 12:17:49;;;;;;;9.90;5.03;;;31.60;71.40;;;;;;4941018;29;20047;-69
2022/06/21 12:20:37;;;;;;;8.35;5.05;;;31.60;72.90;;;;;;4944968;29;20110;-68
2022/06/21 12:23:18;;;;;;;6.22;4.32;;;31.70;74.70;;;;;;4935499;29;20059;-69
2022/06/21 12:25:45;;;;;;;8.07;4.43;;;31.80;73.80;;;;;;4937724;28;20027;-69
2022/06/21 12:28:25;;;;;;;8.90;4.40;;;31.80;71.90;;;;;;4935892;29;20032;-69
2022/06/21 12:30:53;;;;;;;11.18;4.95;;;31.90;72.70;;;;;;4945816;29;20390;-68
2022/06/21 12:33:22;;;;;;;7.50;4.93;;;31.80;72.30;;;;;;4941625;29;20049;-69
2022/06/21 12:35:57;;;;;;;8.48;4.53;;;31.70;72.20;;;;;;4926754;29;20059;-68
2022/06/21 12:38:29;;;;;;;10.35;4.75;;;31.70;72.80;;;;;;4942475;29;20623;-68
2022/06/21 12:41:33;;;;;;;7.45;4.35;;;31.60;72.60;;;;;;4944737;29;20502;-68
2022/06/21 12:44:33;;;;;;;9.93;4.78;;;31.60;72.20;;;;;;4949112;28;20039;-68
2022/06/21 12:47:20;;;;;;;8.30;4.45;;;31.80;73.00;;;;;;4949690;28;20028;-69
2022/06/21 12:49:58;;;;;;;6.88;4.53;;;31.80;71.90;;;;;;4946786;28;20047;-69
2022/06/21 12:52:38;;;;;;;7.85;4.10;;;31.60;73.10;;;;;;4978773;28;20041;-70
2022/06/21 12:55:10;;;;;;;9.43;4.40;;;31.70;72.70;;;;;;5071033;28;20024;-64
2022/06/21 12:58:11;;;;;;;7.07;4.30;;;31.80;73.00;;;;;;5071158;28;20028;-67
2022/06/21 13:00:44;;;;;;;7.70;3.95;;;32.00;72.50;;;;;;5068664;28;20378;-70
2022/06/21 13:03:29;;;;;;;8.75;4.82;;;32.00;74.60;;;;;;5070677;28;20025;-71
2022/06/21 13:06:19;;;;;;;8.15;5.22;;;32.00;73.50;;;;;;5069716;28;20056;-71
2022/06/21 13:08:57;;;;;;;10.15;5.18;;;31.90;71.60;;;;;;5070732;28;20107;-70
2022/06/21 13:11:51;;;;;;;7.57;4.55;;;31.90;72.20;;;;;;5070579;28;20027;-71
2022/06/21 13:14:43;;;;;;;7.20;4.53;;;32.20;72.60;;;;;;5071088;28;20078;-70
2022/06/21 13:17:28;;;;;;;8.07;4.55;;;32.20;70.30;;;;;;5070631;28;20037;-71
2022/06/21 13:20:06;;;;;;;8.10;4.50;;;32.50;71.10;;;;;;5070261;28;20025;-71
2022/06/21 13:22:32;;;;;;;10.35;5.18;;;32.60;71.50;;;;;;5070743;28;20074;-70
2022/06/21 13:25:01;;;;;;;8.27;4.68;;;32.30;71.60;;;;;;5066461;28;20108;-70
2022/06/21 13:27:45;;;;;;;9.77;4.80;;;32.20;71.90;;;;;;5071667;28;20028;-69
2022/06/21 13:30:25;;;;;;;9.13;4.68;;;32.00;71.30;;;;;;5071343;28;20028;-70
2022/06/21 13:32:55;;;;;;;7.38;4.20;;;32.00;71.80;;;;;;5071466;28;20104;-70
2022/06/21 13:35:42;;;;;;;6.78;4.75;;;31.90;71.50;;;;;;5071503;28;20047;-70
2022/06/21 13:38:29;;;;;;;14.27;4.65;;;32.10;71.10;;;;;;5071318;28;20099;-71
2022/06/21 13:44:22;;;;;;;8.65;4.90;;;31.60;72.00;;;;;;4989556;28;20524;-71
2022/06/21 13:46:59;;;;;;;10.48;4.85;;;31.60;72.10;;;;;;4991160;28;20038;-70
2022/06/21 13:49:31;;;;;;;9.55;4.85;;;31.50;70.40;;;;;;4989768;28;20129;-71
2022/06/21 13:52:08;;;;;;;11.95;5.05;;;31.50;71.10;;;;;;4989512;28;20065;-70
2022/06/21 13:54:49;;;;;;;8.88;4.53;;;31.50;70.40;;;;;;5009508;28;20600;-70
2022/06/21 13:57:36;;;;;;;6.80;4.90;;;31.40;71.80;;;;;;5005605;28;20053;-69